Schedule Details

Flight Number: CPX785
Departure: Tan Son Nhat International Airport (VVTS) at N/A
Arrival: Incheon International Airport (RKSI) at N/A
Route: TANOS1B PTH N500 AGSAM L625 ABVAR M646 POTIB Q11 DRAKE Q11 WP900 L4 LIPLO Y741 BOLUT B576 OLMEN OLMEN1P


Current Weather Information
VVTS 180600Z VRB09KT 9999 BKN017 34/19 Q1012 NOSIG
RKSI 180600Z 30008KT CAVOK 02/M08 Q1025 NOSIG

Route Map